createdAt,value
2022-09-22T00:01:24.872Z,102377.41
2022-09-22T00:03:58.276Z,102368.63
2022-09-22T00:06:27.871Z,102364.38
2022-09-22T00:08:57.355Z,102366.75
2022-09-22T00:11:28.951Z,102369.91
2022-09-22T00:14:02.133Z,102374.81
2022-09-22T00:16:32.439Z,102370.63
2022-09-22T00:18:59.050Z,102379.84
2022-09-22T00:21:30.935Z,102371.06
2022-09-22T00:24:03.501Z,102363.91
2022-09-22T00:26:31.233Z,102363.03
2022-09-22T00:28:58.148Z,102365.06
2022-09-22T00:31:25.646Z,102368.88
2022-09-22T00:33:54.631Z,102366.38
2022-09-22T00:36:25.799Z,102365.59
2022-09-22T00:38:54.074Z,102360.09
2022-09-22T00:41:25.126Z,102360.00
2022-09-22T00:44:28.989Z,102359.16
2022-09-22T00:47:07.754Z,102356.34
2022-09-22T00:49:47.030Z,102350.09
2022-09-22T00:52:18.992Z,102351.94
2022-09-22T00:54:48.538Z,102350.97
2022-09-22T00:57:19.496Z,102349.13
2022-09-22T00:59:50.459Z,102348.34
2022-09-22T01:02:17.100Z,102347.63
2022-09-22T01:04:50.886Z,102342.50
2022-09-22T01:07:19.966Z,102344.50
2022-09-22T01:09:46.518Z,102335.72
2022-09-22T01:12:13.130Z,102335.63
2022-09-22T01:15:09.675Z,102335.81
2022-09-22T01:17:56.083Z,102332.25
2022-09-22T01:20:23.165Z,102337.63
2022-09-22T01:23:20.711Z,102331.38
2022-09-22T01:26:08.989Z,102324.16
2022-09-22T01:28:56.395Z,102326.16
2022-09-22T01:31:41.178Z,102319.28
2022-09-22T01:34:32.778Z,102317.66
2022-09-22T01:37:11.589Z,102324.88
2022-09-22T01:39:44.821Z,102318.59
2022-09-22T01:42:37.287Z,102318.69
2022-09-22T01:45:38.962Z,102314.25
2022-09-22T01:48:13.659Z,102322.34
2022-09-22T01:50:45.033Z,102322.53
2022-09-22T01:53:14.997Z,102310.09
2022-09-22T01:55:47.552Z,102306.59
2022-09-22T01:58:21.557Z,102307.56
2022-09-22T02:00:55.953Z,102307.66
2022-09-22T02:04:01.702Z,102303.56
2022-09-22T02:06:41.370Z,102299.22
2022-09-22T02:09:12.394Z,102292.00
2022-09-22T02:11:39.577Z,102296.34
2022-09-22T02:14:07.246Z,102290.09
2022-09-22T02:16:34.826Z,102287.31
2022-09-22T02:19:13.333Z,102290.88
2022-09-22T02:21:43.727Z,102279.13
2022-09-22T02:24:36.970Z,102290.09
2022-09-22T02:27:08.174Z,102287.31
2022-09-22T02:29:39.490Z,102277.47
2022-09-22T02:32:11.410Z,102273.91
2022-09-22T02:34:39.456Z,102279.31
2022-09-22T02:37:20.892Z,102280.44
2022-09-22T02:40:07.191Z,102278.94
2022-09-22T02:42:41.681Z,102269.88
2022-09-22T02:45:25.497Z,102270.75
2022-09-22T02:47:59.843Z,102270.75
2022-09-22T02:50:28.657Z,102268.00
2022-09-22T02:53:03.282Z,102274.25
2022-09-22T02:55:31.727Z,102271.63
2022-09-22T02:57:58.296Z,102282.50
2022-09-22T03:00:24.965Z,102267.28
2022-09-22T03:02:51.453Z,102268.25
2022-09-22T03:05:18.770Z,102263.88
2022-09-22T03:07:45.438Z,102266.69
2022-09-22T03:10:12.013Z,102257.03
2022-09-22T03:13:02.563Z,102260.84
2022-09-22T03:15:29.522Z,102260.25
2022-09-22T03:17:56.069Z,102262.31
2022-09-22T03:20:22.825Z,102259.81
2022-09-22T03:22:49.300Z,102256.50
2022-09-22T03:25:15.862Z,102255.72
2022-09-22T03:27:42.391Z,102256.66
2022-09-22T03:30:09.647Z,102253.09
2022-09-22T03:32:37.505Z,102249.63
2022-09-22T03:35:06.031Z,102251.63
2022-09-22T03:37:34.012Z,102251.97
2022-09-22T03:40:00.925Z,102250.38
2022-09-22T03:42:27.523Z,102248.91
2022-09-22T03:44:55.636Z,102248.28
2022-09-22T03:47:22.114Z,102252.88
2022-09-22T03:49:48.964Z,102249.50
2022-09-22T03:52:15.489Z,102251.31
2022-09-22T03:54:42.012Z,102249.50
2022-09-22T03:57:08.509Z,102239.59
2022-09-22T03:59:35.083Z,102245.75
2022-09-22T04:02:02.714Z,102242.13
2022-09-22T04:04:29.700Z,102244.81
2022-09-22T04:06:56.224Z,102243.94
2022-09-22T04:09:22.903Z,102235.09
2022-09-22T04:11:49.559Z,102234.28
2022-09-22T04:14:19.458Z,102234.28
2022-09-22T04:16:46.178Z,102228.13
2022-09-22T04:19:13.560Z,102229.00
2022-09-22T04:21:40.039Z,102227.16
2022-09-22T04:24:11.503Z,102222.66
2022-09-22T04:26:44.430Z,102227.88
2022-09-22T04:29:23.051Z,102221.38
2022-09-22T04:31:49.784Z,102231.97
2022-09-22T04:34:21.138Z,102224.69
2022-09-22T04:36:47.736Z,102225.47
2022-09-22T04:39:14.223Z,102223.63
2022-09-22T04:41:40.717Z,102223.56
2022-09-22T04:44:07.610Z,102225.38
2022-09-22T04:46:34.197Z,102215.63
2022-09-22T04:49:00.940Z,102219.38
2022-09-22T04:51:27.532Z,102214.06
2022-09-22T04:53:55.568Z,102221.44
2022-09-22T04:56:22.790Z,102222.41
2022-09-22T04:58:49.278Z,102225.09
2022-09-22T05:01:15.844Z,102231.34
2022-09-22T05:03:46.441Z,102225.09
2022-09-22T05:06:12.951Z,102229.69
2022-09-22T05:08:39.503Z,102232.56
2022-09-22T05:11:09.606Z,102235.38
2022-09-22T05:13:41.099Z,102232.06
2022-09-22T05:16:08.579Z,102231.44
2022-09-22T05:18:35.476Z,102228.97
2022-09-22T05:21:02.141Z,102231.84
2022-09-22T05:23:36.152Z,102233.81
2022-09-22T05:26:02.806Z,102239.28
2022-09-22T05:28:29.474Z,102234.06
2022-09-22T05:30:55.984Z,102239.44
2022-09-22T05:33:22.455Z,102246.56
2022-09-22T05:35:48.955Z,102238.41
2022-09-22T05:38:15.478Z,102241.88
2022-09-22T05:40:42.178Z,102240.06
2022-09-22T05:43:08.806Z,102241.72
2022-09-22T05:45:35.564Z,102242.44
2022-09-22T05:48:02.277Z,102238.63
2022-09-22T05:50:28.964Z,102243.09
2022-09-22T05:53:06.589Z,102243.13
2022-09-22T05:55:33.783Z,102244.91
2022-09-22T05:58:00.669Z,102250.22
2022-09-22T06:00:28.450Z,102245.63
2022-09-22T06:02:55.289Z,102246.41
2022-09-22T06:05:22.741Z,102239.97
2022-09-22T06:07:58.118Z,102244.28
2022-09-22T06:10:24.646Z,102249.50
2022-09-22T06:12:51.381Z,102243.94
2022-09-22T06:15:19.781Z,102248.28
2022-09-22T06:17:46.247Z,102245.34
2022-09-22T06:20:12.916Z,102252.38
2022-09-22T06:22:39.710Z,102244.13
2022-09-22T06:25:09.079Z,102249.44
2022-09-22T06:27:35.599Z,102245.72
2022-09-22T06:30:02.195Z,102247.28
2022-09-22T06:32:28.683Z,102245.28
2022-09-22T06:34:56.028Z,102247.81
2022-09-22T06:37:23.328Z,102250.41
2022-09-22T06:39:49.801Z,102243.13
2022-09-22T06:42:17.247Z,102248.41
2022-09-22T06:44:45.394Z,102242.94
2022-09-22T06:47:12.411Z,102248.16
2022-09-22T06:49:38.868Z,102250.75
2022-09-22T06:52:05.950Z,102246.06
2022-09-22T06:54:35.585Z,102241.28
2022-09-22T06:57:02.459Z,102250.69
2022-09-22T06:59:30.170Z,102247.38
2022-09-22T07:01:56.915Z,102248.16
2022-09-22T07:04:25.452Z,102240.72
2022-09-22T07:06:51.919Z,102236.69
2022-09-22T07:09:18.476Z,102240.81
2022-09-22T07:11:45.121Z,102235.84
2022-09-22T07:14:12.574Z,102237.97
2022-09-22T07:16:39.899Z,102235.75
2022-09-22T07:19:06.589Z,102241.44
2022-09-22T07:21:36.423Z,102234.56
2022-09-22T07:24:08.056Z,102241.03
2022-09-22T07:26:37.890Z,102234.22
2022-09-22T07:29:07.851Z,102228.31
2022-09-22T07:31:34.931Z,102236.91
2022-09-22T07:34:03.284Z,102233.63
2022-09-22T07:36:32.542Z,102235.91
2022-09-22T07:39:07.509Z,102227.19
2022-09-22T07:41:52.970Z,102237.56
2022-09-22T07:44:42.295Z,102232.44
2022-09-22T07:47:10.903Z,102226.09
2022-09-22T07:49:37.408Z,102219.28
2022-09-22T07:52:04.353Z,102222.56
2022-09-22T07:54:36.854Z,102224.25
2022-09-22T07:57:06.610Z,102231.09
2022-09-22T07:59:33.737Z,102235.31
2022-09-22T08:02:01.184Z,102224.34
2022-09-22T08:04:31.925Z,102230.34
2022-09-22T08:06:58.632Z,102227.91
2022-09-22T08:09:26.374Z,102226.69
2022-09-22T08:11:53.659Z,102224.31
2022-09-22T08:14:23.485Z,102220.31
2022-09-22T08:16:51.625Z,102229.75
2022-09-22T08:19:18.347Z,102220.16
2022-09-22T08:21:49.204Z,102213.31
2022-09-22T08:24:22.191Z,102220.03
2022-09-22T08:26:53.344Z,102222.69
2022-09-22T08:29:21.201Z,102220.31
2022-09-22T08:31:49.254Z,102214.38
2022-09-22T08:34:18.124Z,102209.25
2022-09-22T08:36:46.467Z,102209.06
2022-09-22T08:39:13.729Z,102208.59
2022-09-22T08:42:08.439Z,102206.91
2022-09-22T08:44:39.303Z,102211.81
2022-09-22T08:47:05.849Z,102210.41
2022-09-22T08:50:00.458Z,102208.72
2022-09-22T08:52:48.766Z,102213.09
2022-09-22T08:55:23.122Z,102207.09
2022-09-22T08:58:03.095Z,102212.00
2022-09-22T09:00:49.175Z,102213.44
2022-09-22T09:03:22.835Z,102216.22
2022-09-22T09:06:00.298Z,102206.06
2022-09-22T09:08:54.831Z,102209.38
2022-09-22T09:11:47.253Z,102201.94
2022-09-22T09:14:19.639Z,102203.53
2022-09-22T09:16:58.670Z,102205.28
2022-09-22T09:19:43.834Z,102208.72
2022-09-22T09:22:24.844Z,102213.06
2022-09-22T09:25:24.405Z,102211.31
2022-09-22T09:27:57.117Z,102206.56
2022-09-22T09:30:24.258Z,102207.25
2022-09-22T09:33:01.783Z,102205.22
2022-09-22T09:35:58.627Z,102198.56
2022-09-22T09:38:28.570Z,102206.59
2022-09-22T09:41:10.841Z,102202.25
2022-09-22T09:43:45.504Z,102193.16
2022-09-22T09:46:24.856Z,102191.53
2022-09-22T09:49:05.997Z,102204.16
2022-09-22T09:51:41.258Z,102202.41
2022-09-22T09:54:16.670Z,102199.06
2022-09-22T09:57:07.965Z,102194.53
2022-09-22T10:00:05.209Z,102195.34
2022-09-22T10:03:02.789Z,102191.91
2022-09-22T10:05:31.109Z,102189.38
2022-09-22T10:08:01.311Z,102182.94
2022-09-22T10:10:33.795Z,102183.44
2022-09-22T10:13:00.222Z,102183.34
2022-09-22T10:15:31.398Z,102178.22
2022-09-22T10:17:58.460Z,102169.38
2022-09-22T10:20:28.535Z,102163.25
2022-09-22T10:22:56.416Z,102170.19
2022-09-22T10:25:31.940Z,102171.97
2022-09-22T10:28:05.106Z,102167.09
2022-09-22T10:30:33.168Z,102162.03
2022-09-22T10:33:08.774Z,102162.59
2022-09-22T10:35:36.256Z,102162.28
2022-09-22T10:38:23.991Z,102163.00
2022-09-22T10:40:56.934Z,102156.34
2022-09-22T10:44:03.118Z,102149.72
2022-09-22T10:46:50.589Z,102150.09
2022-09-22T10:49:16.925Z,102140.84
2022-09-22T10:52:04.768Z,102141.34
2022-09-22T10:54:56.290Z,102134.19
2022-09-22T10:57:32.860Z,102133.34
2022-09-22T11:00:14.980Z,102131.97
2022-09-22T11:02:58.033Z,102126.47
2022-09-22T11:06:01.531Z,102126.16
2022-09-22T11:09:12.973Z,102128.22
2022-09-22T11:12:15.177Z,102126.16
2022-09-22T11:14:59.079Z,102121.34
2022-09-22T11:17:45.459Z,102127.72
2022-09-22T11:20:12.275Z,102122.19
2022-09-22T11:22:39.258Z,102119.59
2022-09-22T11:25:39.359Z,102124.22
2022-09-22T11:28:35.437Z,102122.09
2022-09-22T11:31:02.165Z,102111.25
2022-09-22T11:34:04.032Z,102110.88
2022-09-22T11:36:42.326Z,102116.03
2022-09-22T11:39:20.394Z,102105.38
2022-09-22T11:42:25.101Z,102105.19
2022-09-22T11:45:00.691Z,102100.59
2022-09-22T11:47:29.929Z,102097.72
2022-09-22T11:50:04.897Z,102097.91
2022-09-22T11:52:58.295Z,102092.06
2022-09-22T11:55:52.422Z,102084.84
2022-09-22T11:58:22.285Z,102078.50
2022-09-22T12:00:57.649Z,102076.78
2022-09-22T12:03:50.473Z,102079.88
2022-09-22T12:06:26.185Z,102071.31
2022-09-22T12:09:04.540Z,102065.13
2022-09-22T12:11:35.822Z,102057.06
2022-09-22T12:14:03.451Z,102062.88
2022-09-22T12:16:47.742Z,102056.84
2022-09-22T12:19:26.462Z,102056.63
2022-09-22T12:22:00.497Z,102058.00
2022-09-22T12:24:27.041Z,102051.41
2022-09-22T12:26:53.814Z,102048.34
2022-09-22T12:29:24.984Z,102049.75
2022-09-22T12:31:55.521Z,102050.28
2022-09-22T12:34:35.088Z,102040.00
2022-09-22T12:37:30.219Z,102039.47
2022-09-22T12:40:19.758Z,102033.47
2022-09-22T12:42:51.815Z,102031.59
2022-09-22T12:45:35.065Z,102024.72
2022-09-22T12:48:17.862Z,102021.81
2022-09-22T12:50:45.639Z,102020.50
2022-09-22T12:53:43.774Z,102014.13
2022-09-22T12:56:47.497Z,102015.47
2022-09-22T12:59:35.508Z,102004.75
2022-09-22T13:02:11.093Z,102001.59
2022-09-22T13:04:38.338Z,102008.91
2022-09-22T13:07:25.145Z,102000.78
2022-09-22T13:10:23.820Z,101991.78
2022-09-22T13:13:09.509Z,101991.66
2022-09-22T13:15:51.090Z,101988.84
2022-09-22T13:18:38.346Z,101990.19
2022-09-22T13:21:13.823Z,101991.38
2022-09-22T13:23:57.793Z,101986.00
2022-09-22T13:26:33.430Z,101976.69
2022-09-22T13:29:11.977Z,101982.38
2022-09-22T13:31:48.335Z,101980.59
2022-09-22T13:34:29.204Z,101987.19
2022-09-22T13:36:59.876Z,101982.72
2022-09-22T13:39:31.342Z,101977.38
2022-09-22T13:42:04.513Z,101973.09
2022-09-22T13:44:40.021Z,101971.38
2022-09-22T13:47:17.058Z,101969.69
2022-09-22T13:49:47.735Z,101963.97
2022-09-22T13:52:19.269Z,101962.28
2022-09-22T13:54:52.369Z,101960.19
2022-09-22T13:57:23.886Z,101955.53
2022-09-22T13:59:52.319Z,101960.59
2022-09-22T14:02:29.357Z,101948.69
2022-09-22T14:05:02.975Z,101944.13
2022-09-22T14:07:34.227Z,101952.97
2022-09-22T14:10:09.138Z,101946.22
2022-09-22T14:12:36.007Z,101943.94
2022-09-22T14:15:39.216Z,101940.53
2022-09-22T14:18:15.657Z,101937.38
2022-09-22T14:20:44.422Z,101937.09
2022-09-22T14:23:28.106Z,101935.22
2022-09-22T14:26:01.815Z,101934.00
2022-09-22T14:28:35.166Z,101932.09
2022-09-22T14:31:02.432Z,101933.16
2022-09-22T14:33:49.043Z,101927.31
2022-09-22T14:36:19.285Z,101935.22
2022-09-22T14:38:58.044Z,101929.88
2022-09-22T14:41:37.564Z,101916.63
2022-09-22T14:44:37.811Z,101926.66
2022-09-22T14:47:26.637Z,101905.94
2022-09-22T14:50:12.199Z,101910.59
2022-09-22T14:52:46.350Z,101903.84
2022-09-22T14:55:39.027Z,101899.66
2022-09-22T14:58:12.607Z,101900.34
2022-09-22T15:01:09.956Z,101895.56
2022-09-22T15:03:59.088Z,101896.59
2022-09-22T15:06:37.406Z,101891.00
2022-09-22T15:09:05.077Z,101893.44
2022-09-22T15:11:56.373Z,101886.47
2022-09-22T15:14:43.318Z,101882.63
2022-09-22T15:17:53.313Z,101886.84
2022-09-22T15:20:21.597Z,101890.88
2022-09-22T15:22:48.967Z,101890.94
2022-09-22T15:25:18.545Z,101883.13
2022-09-22T15:27:45.089Z,101885.22
2022-09-22T15:30:16.156Z,101874.47
2022-09-22T15:32:46.408Z,101874.69
2022-09-22T15:35:17.666Z,101874.22
2022-09-22T15:37:50.056Z,101880.47
2022-09-22T15:40:21.575Z,101874.69
2022-09-22T15:43:11.322Z,101869.56
2022-09-22T15:45:37.734Z,101878.88
2022-09-22T15:48:04.658Z,101876.81
2022-09-22T15:50:31.221Z,101874.97
2022-09-22T15:52:57.923Z,101868.47
2022-09-22T15:55:24.965Z,101865.69
2022-09-22T15:57:55.225Z,101868.63
2022-09-22T16:00:27.486Z,101861.44
2022-09-22T16:02:54.632Z,101863.81
2022-09-22T16:05:21.319Z,101864.53
2022-09-22T16:07:52.933Z,101856.97
2022-09-22T16:10:23.589Z,101860.25
2022-09-22T16:12:50.528Z,101852.88
2022-09-22T16:15:20.888Z,101853.91
2022-09-22T16:17:47.438Z,101856.31
2022-09-22T16:20:16.365Z,101848.75
2022-09-22T16:22:45.362Z,101851.31
2022-09-22T16:25:12.638Z,101845.66
2022-09-22T16:27:39.214Z,101848.38
2022-09-22T16:30:06.501Z,101850.06
2022-09-22T16:32:36.118Z,101851.59
2022-09-22T16:35:04.263Z,101846.25
2022-09-22T16:37:30.801Z,101840.75
2022-09-22T16:39:57.341Z,101846.22
2022-09-22T16:42:24.097Z,101847.56
2022-09-22T16:44:50.783Z,101851.25
2022-09-22T16:47:22.800Z,101845.06
2022-09-22T16:49:51.285Z,101849.78
2022-09-22T16:52:21.127Z,101854.53
2022-09-22T16:54:49.100Z,101843.69
2022-09-22T16:57:15.612Z,101844.69
2022-09-22T16:59:42.101Z,101849.41
2022-09-22T17:02:10.421Z,101840.28
2022-09-22T17:04:41.585Z,101850.44
2022-09-22T17:07:08.101Z,101845.94
2022-09-22T17:09:34.658Z,101846.91
2022-09-22T17:12:08.224Z,101848.53
2022-09-22T17:14:36.976Z,101843.31
2022-09-22T17:17:07.402Z,101849.03
2022-09-22T17:19:33.975Z,101841.91
2022-09-22T17:22:00.458Z,101837.50
2022-09-22T17:24:27.189Z,101843.06
2022-09-22T17:26:56.388Z,101843.13
2022-09-22T17:29:28.522Z,101835.13
2022-09-22T17:32:02.540Z,101836.91
2022-09-22T17:34:34.570Z,101841.56
2022-09-22T17:37:02.973Z,101841.63
2022-09-22T17:39:29.597Z,101841.53
2022-09-22T17:41:56.507Z,101843.41
2022-09-22T17:44:28.794Z,101838.72
2022-09-22T17:47:14.596Z,101836.88
2022-09-22T17:49:59.646Z,101837.78
2022-09-22T17:52:29.212Z,101831.34
2022-09-22T17:55:12.622Z,101834.22
2022-09-22T17:57:41.704Z,101836.13
2022-09-22T18:00:12.392Z,101837.00
2022-09-22T18:02:39.278Z,101842.16
2022-09-22T18:05:07.003Z,101836.56
2022-09-22T18:07:40.287Z,101842.63
2022-09-22T18:10:13.966Z,101836.16
2022-09-22T18:12:41.257Z,101836.75
2022-09-22T18:15:09.545Z,101827.44
2022-09-22T18:17:43.063Z,101829.00
2022-09-22T18:20:15.131Z,101826.84
2022-09-22T18:22:47.779Z,101825.81
2022-09-22T18:25:15.606Z,101830.97
2022-09-22T18:27:42.266Z,101829.69
2022-09-22T18:30:14.182Z,101836.66
2022-09-22T18:32:42.349Z,101831.06
2022-09-22T18:35:09.237Z,101832.78
2022-09-22T18:37:35.780Z,101839.63
2022-09-22T18:40:02.330Z,101829.44
2022-09-22T18:42:31.130Z,101834.59
2022-09-22T18:45:02.305Z,101830.56
2022-09-22T18:47:28.789Z,101828.53
2022-09-22T18:49:56.849Z,101828.94
2022-09-22T18:52:24.806Z,101825.78
2022-09-22T18:54:53.767Z,101834.47
2022-09-22T18:57:28.323Z,101838.41
2022-09-22T18:59:57.679Z,101835.50
2022-09-22T19:02:24.769Z,101834.34
2022-09-22T19:04:51.686Z,101834.03
2022-09-22T19:07:41.347Z,101842.59
2022-09-22T19:10:14.360Z,101834.84
2022-09-22T19:12:41.456Z,101839.81
2022-09-22T19:15:13.802Z,101842.94
2022-09-22T19:17:45.092Z,101844.78
2022-09-22T19:20:13.588Z,101842.22
2022-09-22T19:22:40.404Z,101839.63
2022-09-22T19:25:07.494Z,101829.88
2022-09-22T19:27:34.747Z,101833.59
2022-09-22T19:30:01.785Z,101833.72
2022-09-22T19:32:28.378Z,101825.84
2022-09-22T19:34:59.100Z,101833.25
2022-09-22T19:37:27.772Z,101836.13
2022-09-22T19:39:54.310Z,101830.94
2022-09-22T19:42:21.126Z,101834.66
2022-09-22T19:44:47.810Z,101825.78
2022-09-22T19:47:14.325Z,101821.47
2022-09-22T19:49:42.162Z,101828.88
2022-09-22T19:52:09.293Z,101831.16
2022-09-22T19:54:35.814Z,101819.66
2022-09-22T19:57:02.435Z,101823.50
2022-09-22T19:59:29.515Z,101822.75
2022-09-22T20:01:56.082Z,101825.00
2022-09-22T20:04:23.932Z,101827.13
2022-09-22T20:06:50.429Z,101827.50
2022-09-22T20:09:17.359Z,101825.03
2022-09-22T20:11:49.534Z,101828.88
2022-09-22T20:14:20.198Z,101821.84
2022-09-22T20:16:56.949Z,101823.97
2022-09-22T20:19:25.518Z,101815.34
2022-09-22T20:21:54.506Z,101811.91
2022-09-22T20:24:25.471Z,101819.31
2022-09-22T20:26:52.658Z,101815.88
2022-09-22T20:29:20.568Z,101815.13
2022-09-22T20:31:47.056Z,101809.97
2022-09-22T20:34:15.410Z,101801.22
2022-09-22T20:36:43.239Z,101805.19
2022-09-22T20:39:14.998Z,101799.28
2022-09-22T20:41:42.484Z,101796.81
2022-09-22T20:44:13.866Z,101797.31
2022-09-22T20:46:42.142Z,101794.22
2022-09-22T20:49:12.518Z,101787.22
2022-09-22T20:51:39.245Z,101786.34
2022-09-22T20:54:07.237Z,101786.47
2022-09-22T20:56:34.121Z,101788.44
2022-09-22T20:59:01.999Z,101787.72
2022-09-22T21:01:28.563Z,101782.41
2022-09-22T21:03:57.327Z,101781.81
2022-09-22T21:06:24.535Z,101781.22
2022-09-22T21:09:13.104Z,101780.84
2022-09-22T21:11:39.766Z,101779.63
2022-09-22T21:14:10.356Z,101773.13
2022-09-22T21:16:38.229Z,101770.00
2022-09-22T21:19:04.795Z,101767.81
2022-09-22T21:21:33.500Z,101768.19
2022-09-22T21:24:01.899Z,101762.28
2022-09-22T21:26:29.867Z,101762.53
2022-09-22T21:28:56.892Z,101753.78
2022-09-22T21:31:23.467Z,101758.44
2022-09-22T21:33:52.155Z,101755.09
2022-09-22T21:36:22.508Z,101757.19
2022-09-22T21:38:54.640Z,101756.56
2022-09-22T21:41:23.261Z,101755.09
2022-09-22T21:43:53.578Z,101748.19
2022-09-22T21:46:22.576Z,101746.72
2022-09-22T21:48:49.482Z,101746.22
2022-09-22T21:51:22.015Z,101749.19
2022-09-22T21:53:54.477Z,101752.88
2022-09-22T21:56:23.284Z,101743.03
2022-09-22T21:58:51.984Z,101742.16
2022-09-22T22:01:21.195Z,101732.31
2022-09-22T22:03:54.174Z,101734.16
2022-09-22T22:06:39.982Z,101736.13
2022-09-22T22:09:23.389Z,101737.22
2022-09-22T22:11:56.237Z,101732.81
2022-09-22T22:14:31.963Z,101728.25
2022-09-22T22:16:58.465Z,101714.69
2022-09-22T22:19:26.866Z,101725.66
2022-09-22T22:21:54.277Z,101729.34
2022-09-22T22:24:49.914Z,101717.91
2022-09-22T22:27:16.818Z,101727.00
2022-09-22T22:29:43.422Z,101723.44
2022-09-22T22:32:10.590Z,101720.84
2022-09-22T22:34:38.861Z,101716.28
2022-09-22T22:37:09.656Z,101717.28
2022-09-22T22:39:36.448Z,101716.41
2022-09-22T22:42:03.050Z,101712.00
2022-09-22T22:44:30.902Z,101712.97
2022-09-22T22:46:57.386Z,101712.97
2022-09-22T22:49:24.130Z,101710.25
2022-09-22T22:51:52.286Z,101712.09
2022-09-22T22:54:19.861Z,101705.81
2022-09-22T22:56:50.803Z,101704.97
2022-09-22T22:59:18.112Z,101697.94
2022-09-22T23:01:44.685Z,101699.06
2022-09-22T23:04:11.770Z,101693.88
2022-09-22T23:06:41.706Z,101698.44
2022-09-22T23:09:11.956Z,101691.53
2022-09-22T23:11:40.178Z,101693.63
2022-09-22T23:14:12.459Z,101689.44
2022-09-22T23:16:44.277Z,101686.94
2022-09-22T23:19:18.986Z,101689.00
2022-09-22T23:21:46.441Z,101684.69
2022-09-22T23:24:16.772Z,101685.78
2022-09-22T23:26:44.788Z,101683.19
2022-09-22T23:29:11.650Z,101673.47
2022-09-22T23:31:38.210Z,101678.88
2022-09-22T23:34:08.774Z,101676.31
2022-09-22T23:36:35.354Z,101671.13
2022-09-22T23:39:03.746Z,101665.84
2022-09-22T23:41:34.927Z,101669.66
2022-09-22T23:44:06.709Z,101662.50
2022-09-22T23:46:34.063Z,101658.19
2022-09-22T23:49:00.643Z,101658.44
2022-09-22T23:51:27.733Z,101658.56
2022-09-22T23:53:54.398Z,101664.09
2022-09-22T23:56:20.889Z,101658.91
2022-09-22T23:58:47.581Z,101652.88
